createdAt,value
2023-05-14T00:00:28.664Z,1.77
2023-05-14T00:05:20.833Z,1.25
2023-05-14T00:10:12.798Z,2.03
2023-05-14T00:15:05.258Z,1.40
2023-05-14T00:19:57.100Z,1.38
2023-05-14T00:24:48.935Z,1.58
2023-05-14T00:29:40.829Z,1.30
2023-05-14T00:34:32.735Z,1.73
2023-05-14T00:39:24.528Z,1.23
2023-05-14T00:44:16.416Z,1.20
2023-05-14T00:49:08.360Z,1.30
2023-05-14T00:54:00.369Z,1.17
2023-05-14T00:58:52.486Z,1.37
2023-05-14T01:03:44.950Z,1.20
2023-05-14T01:09:01.905Z,1.80
2023-05-14T01:14:24.110Z,1.30
2023-05-14T01:19:26.597Z,1.33
2023-05-14T01:24:18.498Z,1.15
2023-05-14T01:29:18.989Z,1.80
2023-05-14T01:34:13.108Z,1.17
2023-05-14T01:39:06.163Z,1.10
2023-05-14T01:43:58.619Z,1.52
2023-05-14T01:48:50.908Z,2.37
2023-05-14T01:53:50.352Z,1.05
2023-05-14T01:58:42.302Z,1.50
2023-05-14T02:03:34.254Z,1.53
2023-05-14T02:08:26.247Z,1.03
2023-05-14T02:13:18.143Z,1.33
2023-05-14T02:18:11.259Z,1.58
2023-05-14T02:23:03.246Z,1.70
2023-05-14T02:27:55.186Z,1.30
2023-05-14T02:32:47.147Z,1.30
2023-05-14T02:37:39.896Z,0.90
2023-05-14T02:42:32.038Z,1.50
2023-05-14T02:47:26.034Z,1.00
2023-05-14T02:52:17.925Z,1.33
2023-05-14T02:57:09.904Z,1.33
2023-05-14T03:02:01.754Z,1.30
2023-05-14T03:06:54.429Z,1.10
2023-05-14T03:11:46.347Z,1.10
2023-05-14T03:16:38.396Z,1.30
2023-05-14T03:21:31.409Z,1.70
2023-05-14T03:26:23.374Z,0.90
2023-05-14T03:31:18.199Z,2.65
2023-05-14T03:36:10.445Z,0.90
2023-05-14T03:41:02.306Z,1.67
2023-05-14T03:45:54.701Z,1.15
2023-05-14T03:50:47.994Z,1.10
2023-05-14T03:55:39.965Z,1.30
2023-05-14T04:00:36.386Z,1.05
2023-05-14T04:10:21.046Z,1.10
2023-05-14T04:15:14.182Z,1.13
2023-05-14T04:20:07.032Z,1.10
2023-05-14T04:29:50.865Z,1.10
2023-05-14T04:34:42.966Z,1.60
2023-05-14T04:39:34.864Z,0.90
2023-05-14T04:44:26.847Z,1.23
2023-05-14T04:49:19.034Z,0.80
2023-05-14T04:54:11.004Z,0.80
2023-05-14T04:59:02.893Z,1.00
2023-05-14T05:03:55.348Z,1.15
2023-05-14T05:08:47.267Z,1.35
2023-05-14T05:13:39.173Z,1.10
2023-05-14T05:18:31.034Z,1.02
2023-05-14T05:23:23.311Z,0.90
2023-05-14T05:28:15.274Z,1.15
2023-05-14T05:33:07.328Z,0.93
2023-05-14T05:38:01.364Z,1.30
2023-05-14T05:42:54.924Z,1.10
2023-05-14T05:47:46.730Z,1.05
2023-05-14T05:52:39.331Z,1.30
2023-05-14T05:57:31.225Z,1.17
2023-05-14T06:02:23.252Z,0.93
2023-05-14T06:07:15.173Z,1.00
2023-05-14T06:12:07.693Z,0.90
2023-05-14T06:16:59.834Z,0.95
2023-05-14T06:21:51.886Z,0.82
2023-05-14T06:26:43.738Z,1.05
2023-05-14T06:31:35.655Z,1.10
2023-05-14T06:36:27.734Z,1.17
2023-05-14T06:41:19.696Z,1.47
2023-05-14T06:46:11.531Z,0.80
2023-05-14T06:51:04.095Z,1.25
2023-05-14T06:55:56.524Z,1.83
2023-05-14T07:00:48.731Z,0.80
2023-05-14T07:05:41.353Z,0.87
2023-05-14T07:10:33.478Z,1.25
2023-05-14T07:15:26.421Z,0.80
2023-05-14T07:20:18.382Z,1.00
2023-05-14T07:25:11.787Z,2.20
2023-05-14T07:30:04.205Z,1.10
2023-05-14T07:34:56.140Z,0.82
2023-05-14T07:39:48.282Z,0.90
2023-05-14T07:44:40.548Z,2.20
2023-05-14T07:49:33.539Z,1.10
2023-05-14T07:54:25.450Z,1.10
2023-05-14T07:59:17.351Z,1.60
2023-05-14T08:04:11.813Z,1.13
2023-05-14T08:09:05.493Z,0.90
2023-05-14T08:13:57.539Z,0.95
2023-05-14T08:18:49.682Z,1.10
2023-05-14T08:23:41.628Z,0.87
2023-05-14T08:28:33.564Z,1.03
2023-05-14T08:33:25.424Z,0.87
2023-05-14T08:38:17.386Z,0.90
2023-05-14T08:43:11.238Z,1.07
2023-05-14T08:48:08.941Z,1.40
2023-05-14T08:53:01.018Z,1.00
2023-05-14T08:57:53.227Z,1.00
2023-05-14T09:02:45.404Z,1.23
2023-05-14T09:07:37.373Z,2.38
2023-05-14T09:12:29.490Z,1.17
2023-05-14T09:17:21.470Z,1.03
2023-05-14T09:22:14.662Z,0.80
2023-05-14T09:27:07.020Z,0.80
2023-05-14T09:32:00.521Z,1.27
2023-05-14T09:37:03.804Z,0.70
2023-05-14T09:41:56.364Z,1.20
2023-05-14T09:46:48.981Z,2.45
2023-05-14T09:51:41.087Z,1.10
2023-05-14T09:56:33.770Z,0.80
2023-05-14T10:01:26.517Z,0.93
2023-05-14T10:11:16.071Z,0.73
2023-05-14T10:16:08.188Z,2.85
2023-05-14T10:27:26.391Z,1.90
2023-05-14T10:32:20.923Z,1.08
2023-05-14T10:37:19.518Z,1.30
2023-05-14T10:42:16.713Z,1.10
2023-05-14T10:47:08.524Z,0.80
2023-05-14T10:52:00.813Z,2.10
2023-05-14T10:56:53.832Z,1.20
2023-05-14T11:01:45.937Z,1.65
2023-05-14T11:06:38.855Z,3.30
2023-05-14T11:30:17.239Z,2.85
2023-05-14T11:35:34.729Z,6.65
2023-05-14T16:52:35.212Z,3.75
2023-05-14T16:57:26.954Z,2.43
2023-05-14T17:02:18.868Z,3.45
2023-05-14T17:07:11.579Z,3.72
2023-05-14T17:12:03.609Z,4.65
2023-05-14T17:16:55.962Z,3.30
2023-05-14T17:21:47.797Z,4.13
2023-05-14T17:26:39.538Z,2.65
2023-05-14T17:31:31.423Z,2.53
2023-05-14T17:36:23.301Z,6.78
2023-05-14T17:41:15.188Z,3.67
2023-05-14T17:46:07.288Z,4.13
2023-05-14T17:50:59.121Z,2.40
2023-05-14T17:55:50.930Z,3.25
2023-05-14T18:00:43.753Z,2.88
2023-05-14T18:05:35.802Z,3.60
2023-05-14T18:10:29.460Z,2.65
2023-05-14T18:15:21.442Z,2.10
2023-05-14T18:20:13.408Z,3.40
2023-05-14T18:25:07.053Z,2.28
2023-05-14T18:29:58.877Z,4.38
2023-05-14T18:34:50.647Z,2.53
2023-05-14T18:39:42.469Z,3.92
2023-05-14T18:44:34.157Z,2.42
2023-05-14T18:49:26.268Z,3.70
2023-05-14T18:54:18.022Z,3.03
2023-05-14T18:59:10.593Z,5.65
2023-05-14T19:04:05.324Z,3.60
2023-05-14T19:08:58.732Z,3.80
2023-05-14T19:13:50.562Z,5.00
2023-05-14T19:18:42.575Z,3.88
2023-05-14T19:23:34.348Z,2.80
2023-05-14T19:28:26.660Z,3.17
2023-05-14T19:33:18.468Z,6.07
2023-05-14T19:38:10.818Z,3.03
2023-05-14T19:43:02.571Z,5.15
2023-05-14T19:47:54.656Z,3.80
2023-05-14T19:52:46.685Z,3.70
2023-05-14T19:57:39.431Z,1.70
2023-05-14T20:02:32.149Z,1.90
2023-05-14T20:12:18.036Z,2.55
2023-05-14T20:17:10.248Z,7.13
2023-05-14T20:22:02.271Z,6.90
2023-05-14T20:26:54.110Z,11.55
2023-05-14T20:31:45.918Z,7.77
2023-05-14T20:36:37.705Z,5.40
2023-05-14T20:41:29.478Z,7.00
2023-05-14T20:46:21.363Z,4.00
2023-05-14T20:51:13.259Z,6.07
2023-05-14T20:56:06.451Z,3.97
2023-05-14T21:00:59.810Z,5.93
2023-05-14T21:05:52.661Z,3.88
2023-05-14T21:10:44.455Z,3.77
2023-05-14T21:15:37.098Z,4.40
2023-05-14T21:20:28.850Z,6.28
2023-05-14T21:25:20.714Z,3.33
2023-05-14T21:30:13.176Z,2.33
2023-05-14T21:35:05.423Z,4.07
2023-05-14T21:39:57.183Z,2.28
2023-05-14T21:44:49.030Z,4.93
2023-05-14T21:49:41.686Z,4.47
2023-05-14T21:54:33.662Z,4.25
2023-05-14T21:59:25.503Z,4.63
2023-05-14T22:04:17.433Z,2.63
2023-05-14T22:09:12.342Z,4.43
2023-05-14T22:14:04.193Z,5.95
2023-05-14T22:18:56.220Z,3.97
2023-05-14T22:23:49.121Z,2.88
2023-05-14T22:33:34.962Z,3.33
2023-05-14T22:38:26.722Z,3.42
2023-05-14T22:43:18.565Z,2.78
2023-05-14T22:48:10.578Z,2.43
2023-05-14T22:53:02.400Z,4.37
2023-05-14T22:57:54.271Z,3.28
2023-05-14T23:02:46.338Z,3.17
2023-05-14T23:07:38.289Z,3.73
2023-05-14T23:12:30.100Z,5.37
2023-05-14T23:17:21.985Z,3.33
2023-05-14T23:22:13.966Z,2.20
2023-05-14T23:27:06.033Z,1.93
2023-05-14T23:31:58.001Z,2.60
2023-05-14T23:36:50.083Z,2.30
2023-05-14T23:41:42.213Z,2.07
2023-05-14T23:46:34.130Z,3.27
2023-05-14T23:51:29.182Z,3.13
2023-05-14T23:56:21.773Z,1.90
